LFRK 221130Z AUTO 24019KT 9999 OVC016 11/08 Q1026 TEMPO 4000 DZ BKN010 BECMG 23015G25KT

ElémentsDécodage
LFRK Station météo située sur l'aérodrome de CAEN Carpiquet
221130Z émis le 22 du mois à 11h30 UTC
AUTO Bulletin édité par un automate
24019KT vent du 240°, 19 noeuds
9999 visibilité horizontale supérieure à 10 Km
OVC016 couverture nuageuse totale (8/8) à 1600 pieds
11/08 température 11°C, point de rosée 08°C
 soit une humidité relative de 82%
Q1026 la pression au niveau de la mer (QNH) est de 1026 hPa
TEMPO fluctuation temporaire prévue
4000 visibilité horizontale de 4000 mètres
DZ bruine
BKN010 nuages morcelés (5/8 à 7/8) à 1000 pieds
BECMG fluctuation du temps prévue
23015G25KT vent du 230°, moyenne: 15 noeuds, avec rafales à 25 noeuds